Time;durP1;ratioP1;P1;durP2;ratioP2;P2;SDS_P1;SDS_P2;PMS_P1;PMS_P2;Temp;Humidity;BMP_temperature;BMP_pressure;BME280_temperature;BME280_humidity;BME280_pressure;Samples;Min_cycle;Max_cycle;Signal;HPM_P1;HPM_P2
2022/04/26 03:38:14;;;;;;;10.53;5.37;;;8.70;99.90;;;;;;5022335;28;20524;-75
2022/04/26 03:40:41;;;;;;;8.90;5.60;;;8.80;99.90;;;;;;5017278;28;20435;-74
2022/04/26 03:43:07;;;;;;;8.20;5.73;;;8.70;99.90;;;;;;5023583;28;20432;-76
2022/04/26 03:45:34;;;;;;;12.50;6.50;;;8.70;99.90;;;;;;5021791;28;20484;-75
2022/04/26 03:48:01;;;;;;;6.67;5.00;;;8.80;99.90;;;;;;5025300;28;20459;-76
2022/04/26 03:50:28;;;;;;;7.53;4.63;;;8.90;99.90;;;;;;5022257;28;20534;-76
2022/04/26 03:52:56;;;;;;;8.93;5.03;;;8.80;99.90;;;;;;5023322;28;20435;-75
2022/04/26 03:55:24;;;;;;;6.17;5.00;;;8.70;99.90;;;;;;5021915;28;20455;-74
2022/04/26 03:57:50;;;;;;;9.67;5.50;;;8.70;99.90;;;;;;5023145;28;20784;-76
2022/04/26 04:00:17;;;;;;;9.13;5.10;;;8.70;99.90;;;;;;5022970;28;20442;-74
2022/04/26 04:02:44;;;;;;;8.33;4.70;;;8.70;99.90;;;;;;5022353;28;20822;-75
2022/04/26 04:05:10;;;;;;;5.90;4.13;;;8.70;99.90;;;;;;5023523;28;20596;-75
2022/04/26 04:07:39;;;;;;;6.37;4.77;;;8.60;99.90;;;;;;5022961;28;20477;-75
2022/04/26 04:10:06;;;;;;;5.40;3.97;;;8.60;99.90;;;;;;5023852;28;21010;-74
2022/04/26 04:12:33;;;;;;;8.80;5.13;;;8.70;99.90;;;;;;5020551;28;20596;-75
2022/04/26 04:15:00;;;;;;;7.53;5.70;;;8.60;99.90;;;;;;5021491;28;20436;-75
2022/04/26 04:17:26;;;;;;;5.67;4.40;;;8.60;99.90;;;;;;5022230;28;21097;-75
2022/04/26 04:19:53;;;;;;;8.10;5.20;;;8.60;99.90;;;;;;5030101;28;20460;-75
2022/04/26 04:22:20;;;;;;;10.40;4.87;;;8.80;99.90;;;;;;5026499;28;20845;-74
2022/04/26 04:24:48;;;;;;;9.60;5.30;;;8.60;99.90;;;;;;5022952;28;20936;-74
2022/04/26 04:27:14;;;;;;;11.33;6.40;;;8.80;99.90;;;;;;5026310;28;20482;-75
2022/04/26 04:29:41;;;;;;;6.70;4.87;;;8.80;99.90;;;;;;5027019;28;20951;-74
2022/04/26 04:32:08;;;;;;;11.47;7.83;;;8.80;99.90;;;;;;5020348;28;20422;-74
2022/04/26 04:34:34;;;;;;;7.67;5.00;;;8.70;99.90;;;;;;5029124;28;20438;-75
2022/04/26 04:37:01;;;;;;;8.63;5.63;;;8.70;99.90;;;;;;5024568;28;20475;-75
2022/04/26 04:39:28;;;;;;;9.37;5.23;;;8.70;99.90;;;;;;5019805;28;20469;-75
2022/04/26 04:41:56;;;;;;;8.47;4.00;;;8.80;99.90;;;;;;5027581;28;20468;-75
2022/04/26 04:44:23;;;;;;;6.50;4.43;;;8.70;99.90;;;;;;5026440;28;20863;-76
2022/04/26 04:46:50;;;;;;;8.87;5.50;;;8.70;99.90;;;;;;5023743;28;20463;-76
2022/04/26 04:49:16;;;;;;;9.13;4.27;;;8.50;99.90;;;;;;5027854;28;20467;-76
2022/04/26 04:51:43;;;;;;;11.27;5.00;;;8.30;99.90;;;;;;5022186;28;21028;-76
2022/04/26 04:54:09;;;;;;;6.07;3.80;;;8.50;99.90;;;;;;5027204;28;20955;-74
2022/04/26 04:56:36;;;;;;;7.37;4.20;;;8.50;99.90;;;;;;5024932;28;20929;-75
2022/04/26 04:59:04;;;;;;;4.43;3.30;;;8.50;99.90;;;;;;5024520;28;20529;-74
2022/04/26 05:01:31;;;;;;;9.87;4.17;;;8.50;99.90;;;;;;5022129;28;20427;-75
2022/04/26 05:03:57;;;;;;;7.47;4.83;;;8.50;99.90;;;;;;5025146;28;20457;-76
2022/04/26 05:06:24;;;;;;;6.17;4.73;;;8.70;99.90;;;;;;5021216;28;20838;-76
2022/04/26 05:08:50;;;;;;;5.47;4.90;;;8.70;99.90;;;;;;5024420;28;20443;-76
2022/04/26 05:11:17;;;;;;;8.43;4.80;;;8.90;99.90;;;;;;5028367;28;20470;-75
2022/04/26 05:13:44;;;;;;;6.17;4.20;;;9.00;99.90;;;;;;5027685;28;20456;-76
2022/04/26 05:16:12;;;;;;;7.00;3.93;;;8.90;99.90;;;;;;5020974;28;20573;-76
2022/04/26 05:18:39;;;;;;;10.80;5.53;;;9.00;99.90;;;;;;5030921;28;20434;-75
2022/04/26 05:21:08;;;;;;;10.50;5.37;;;9.00;99.90;;;;;;5024085;28;20442;-74
2022/04/26 05:26:19;;;;;;;13.10;4.97;;;9.00;99.90;;;;;;5026130;28;20692;-75
2022/04/26 05:28:46;;;;;;;7.43;4.73;;;9.10;99.90;;;;;;5024821;28;20443;-76
2022/04/26 05:31:14;;;;;;;8.97;5.53;;;9.30;99.90;;;;;;5024812;28;20464;-76
2022/04/26 05:33:41;;;;;;;8.57;5.40;;;9.20;99.90;;;;;;5026951;28;20458;-76
2022/04/26 05:36:08;;;;;;;7.17;4.23;;;9.10;99.90;;;;;;5025547;28;20514;-76
2022/04/26 05:38:35;;;;;;;8.57;5.80;;;9.20;99.90;;;;;;5020174;28;21189;-73
2022/04/26 05:41:01;;;;;;;9.30;5.17;;;9.30;99.90;;;;;;5021796;28;20532;-76
2022/04/26 05:43:28;;;;;;;7.13;4.33;;;9.30;99.90;;;;;;5027679;28;20467;-76
2022/04/26 05:45:55;;;;;;;7.63;4.93;;;9.10;99.90;;;;;;5023526;28;20509;-75
2022/04/26 05:48:23;;;;;;;10.47;6.10;;;9.20;99.90;;;;;;5023304;28;20903;-76
2022/04/26 05:50:49;;;;;;;6.00;3.67;;;9.40;99.90;;;;;;5016368;28;20428;-77
2022/04/26 05:53:16;;;;;;;6.43;4.10;;;9.30;99.90;;;;;;5026557;28;20464;-75
2022/04/26 05:55:43;;;;;;;6.53;4.17;;;9.20;99.90;;;;;;5022829;28;20598;-75
2022/04/26 05:58:11;;;;;;;8.73;4.17;;;9.10;99.90;;;;;;5028580;28;20525;-76
2022/04/26 06:00:37;;;;;;;11.23;3.70;;;9.00;99.90;;;;;;5028769;28;20457;-73
2022/04/26 06:03:04;;;;;;;6.03;4.13;;;9.10;99.90;;;;;;5026134;28;20431;-74
2022/04/26 06:05:32;;;;;;;10.30;5.50;;;9.20;99.90;;;;;;5025532;28;20934;-76
2022/04/26 06:07:59;;;;;;;9.27;5.17;;;9.20;99.90;;;;;;5021784;28;20492;-77
2022/04/26 06:10:26;;;;;;;5.10;3.63;;;9.30;99.90;;;;;;5027155;28;20581;-76
2022/04/26 06:12:53;;;;;;;8.83;4.90;;;9.40;99.90;;;;;;5032277;28;20447;-77
2022/04/26 06:15:21;;;;;;;7.50;4.13;;;9.20;99.90;;;;;;5026357;28;20427;-74
2022/04/26 06:17:48;;;;;;;10.93;4.63;;;9.50;99.90;;;;;;5026131;28;20534;-77
2022/04/26 06:20:16;;;;;;;6.00;4.37;;;9.60;99.90;;;;;;5022786;28;20982;-77
2022/04/26 06:22:44;;;;;;;6.57;4.70;;;9.60;99.90;;;;;;5024539;28;21108;-75
2022/04/26 06:25:10;;;;;;;7.17;4.50;;;9.40;99.90;;;;;;5024759;28;20461;-76
2022/04/26 06:27:37;;;;;;;25.73;7.50;;;9.60;99.90;;;;;;5021833;28;20484;-76
2022/04/26 06:30:05;;;;;;;11.63;5.10;;;9.70;99.90;;;;;;5028182;28;20521;-77
2022/04/26 06:32:31;;;;;;;9.90;5.47;;;9.80;99.90;;;;;;5027759;28;20465;-77
2022/04/26 06:34:58;;;;;;;6.03;4.00;;;9.90;99.90;;;;;;5028075;28;20460;-77
2022/04/26 06:37:27;;;;;;;9.17;6.13;;;10.00;99.90;;;;;;5029350;28;20516;-76
2022/04/26 06:39:55;;;;;;;10.50;5.10;;;10.30;99.90;;;;;;5022140;28;20472;-77
2022/04/26 06:42:23;;;;;;;6.13;4.53;;;10.30;99.90;;;;;;5026870;28;20797;-76
2022/04/26 06:44:49;;;;;;;8.00;4.87;;;10.20;99.90;;;;;;5025245;28;20432;-77
2022/04/26 06:47:18;;;;;;;15.40;5.30;;;10.40;99.90;;;;;;5026980;28;20816;-77
2022/04/26 06:49:45;;;;;;;9.37;5.83;;;10.60;99.90;;;;;;5028001;28;20450;-75
2022/04/26 06:52:12;;;;;;;6.87;5.07;;;10.70;99.90;;;;;;5024618;28;20436;-75
2022/04/26 06:54:38;;;;;;;8.80;4.70;;;11.00;99.90;;;;;;5023120;28;20468;-76
2022/04/26 06:57:06;;;;;;;6.33;5.17;;;11.20;99.90;;;;;;5023283;28;20517;-76
2022/04/26 06:59:33;;;;;;;11.47;5.50;;;11.30;99.90;;;;;;5021485;28;20453;-76
2022/04/26 07:02:02;;;;;;;11.43;5.17;;;11.20;99.90;;;;;;5010167;28;20460;-76
2022/04/26 07:04:29;;;;;;;6.27;5.40;;;11.30;99.90;;;;;;5021871;28;20988;-76
2022/04/26 07:06:56;;;;;;;8.10;6.43;;;11.50;99.90;;;;;;5023720;28;20520;-75
2022/04/26 07:09:25;;;;;;;15.27;6.47;;;11.80;99.90;;;;;;5024094;28;20457;-76
2022/04/26 07:11:52;;;;;;;8.70;6.33;;;11.70;99.90;;;;;;5027080;28;20462;-77
2022/04/26 07:14:20;;;;;;;8.53;5.90;;;12.10;99.90;;;;;;5031267;28;20547;-77
2022/04/26 07:16:48;;;;;;;12.37;7.27;;;12.50;99.90;;;;;;5030957;28;20534;-77
2022/04/26 07:19:15;;;;;;;10.20;6.10;;;12.80;99.90;;;;;;5023167;28;20439;-77
2022/04/26 07:21:44;;;;;;;12.77;6.57;;;12.70;99.90;;;;;;5022191;28;20436;-77
2022/04/26 07:24:12;;;;;;;9.23;7.90;;;12.30;99.90;;;;;;5024569;28;20427;-77
2022/04/26 07:26:39;;;;;;;15.93;8.53;;;12.20;99.90;;;;;;5024174;28;20534;-77
2022/04/26 07:29:08;;;;;;;13.93;7.50;;;12.40;99.90;;;;;;5024578;28;20427;-75
2022/04/26 07:31:37;;;;;;;12.40;6.90;;;12.30;99.90;;;;;;5023000;28;21118;-75
2022/04/26 07:34:21;;;;;;;9.40;6.30;;;12.60;99.90;;;;;;5026498;28;20506;-76
2022/04/26 07:36:48;;;;;;;12.10;6.03;;;12.70;99.90;;;;;;5027305;28;20479;-76
2022/04/26 07:39:17;;;;;;;10.50;5.80;;;13.30;99.90;;;;;;5020746;28;20461;-75
2022/04/26 07:41:44;;;;;;;11.20;6.77;;;14.00;99.90;;;;;;5026604;28;21220;-76
2022/04/26 07:44:11;;;;;;;10.40;6.80;;;14.50;99.90;;;;;;5027241;28;20511;-77
2022/04/26 07:46:42;;;;;;;17.83;7.23;;;14.80;99.90;;;;;;5021693;28;20586;-77
2022/04/26 07:49:09;;;;;;;10.53;7.63;;;15.10;99.90;;;;;;5027853;28;20499;-76
2022/04/26 07:51:36;;;;;;;12.13;7.20;;;14.90;99.90;;;;;;5025083;28;20562;-75
2022/04/26 07:54:05;;;;;;;9.70;7.53;;;14.70;99.90;;;;;;5022811;28;20462;-77
2022/04/26 07:56:32;;;;;;;9.17;6.57;;;15.00;99.90;;;;;;5027581;28;20845;-78
2022/04/26 07:59:01;;;;;;;9.90;7.40;;;15.40;99.90;;;;;;5029100;28;20461;-77
2022/04/26 08:01:28;;;;;;;15.10;8.57;;;15.40;99.90;;;;;;5019710;28;20560;-76
2022/04/26 08:03:57;;;;;;;9.77;6.97;;;14.90;99.90;;;;;;5030456;28;20481;-76
2022/04/26 08:06:25;;;;;;;15.63;7.13;;;14.90;99.90;;;;;;5024534;28;20489;-76
2022/04/26 08:08:53;;;;;;;12.67;7.00;;;14.40;99.90;;;;;;5028620;28;20461;-77
2022/04/26 08:11:28;;;;;;;11.20;8.80;;;14.00;99.90;;;;;;5025804;28;20456;-74
2022/04/26 08:13:56;;;;;;;10.47;7.10;;;14.20;99.90;;;;;;5029733;28;20459;-75
2022/04/26 08:16:25;;;;;;;11.70;9.57;;;14.50;99.90;;;;;;5029611;28;20491;-75
2022/04/26 08:18:52;;;;;;;13.57;7.90;;;14.30;99.90;;;;;;5034403;28;20772;-76
2022/04/26 08:21:22;;;;;;;13.00;8.10;;;14.40;99.90;;;;;;5025207;28;20457;-77
2022/04/26 08:29:18;;;;;;;16.63;8.40;;;14.90;99.90;;;;;;5009674;28;20523;-68
2022/04/26 08:31:45;;;;;;;12.90;8.27;;;14.60;99.90;;;;;;5016612;28;21173;-69
2022/04/26 08:34:12;;;;;;;13.70;7.90;;;14.60;99.90;;;;;;5021170;28;20449;-69
2022/04/26 08:36:40;;;;;;;12.37;7.27;;;14.50;99.90;;;;;;5021296;28;21035;-69
2022/04/26 08:39:07;;;;;;;11.30;8.33;;;14.40;99.90;;;;;;5008523;28;20516;-67
2022/04/26 08:41:34;;;;;;;7.77;5.90;;;14.20;99.90;;;;;;5022862;28;20825;-69
2022/04/26 08:44:00;;;;;;;9.30;7.10;;;14.00;99.90;;;;;;5018727;28;20467;-68
2022/04/26 08:50:59;;;;;;;24.47;8.77;;;14.20;99.90;;;;;;5011950;28;20948;-69
2022/04/26 08:52:06;;;;;;;12.20;7.47;;;16.60;99.90;;;;;;4996807;28;20504;-69
2022/04/26 08:54:32;;;;;;;11.03;7.83;;;17.80;99.90;;;;;;5014921;28;20469;-69
2022/04/26 08:56:59;;;;;;;13.00;6.70;;;19.00;99.90;;;;;;5018646;28;20536;-69
2022/04/26 08:59:26;;;;;;;9.80;6.50;;;19.80;99.90;;;;;;5014792;28;20466;-69
2022/04/26 09:02:14;;;;;;;12.30;8.93;;;20.00;99.90;;;;;;5017849;28;20464;-69
2022/04/26 09:04:41;;;;;;;11.13;8.10;;;19.90;99.90;;;;;;5017906;28;20764;-69
2022/04/26 09:07:12;;;;;;;9.20;7.73;;;20.20;99.90;;;;;;5010852;28;20860;-69
2022/04/26 09:09:40;;;;;;;10.97;8.23;;;19.90;99.90;;;;;;5022097;28;20460;-69
2022/04/26 09:12:10;;;;;;;11.00;8.93;;;18.60;99.90;;;;;;5017200;28;20586;-68
2022/04/26 09:14:47;;;;;;;10.53;6.90;;;17.50;99.90;;;;;;5019231;28;20664;-69
2022/04/26 09:17:17;;;;;;;10.13;7.10;;;16.60;99.90;;;;;;5017679;28;20458;-69
2022/04/26 09:19:45;;;;;;;13.17;9.43;;;16.50;99.90;;;;;;5018232;28;20460;-68
2022/04/26 09:22:18;;;;;;;13.40;9.20;;;16.60;99.90;;;;;;5022504;28;20910;-69
2022/04/26 09:24:56;;;;;;;12.60;7.27;;;16.10;99.90;;;;;;5017682;28;20527;-68
2022/04/26 09:27:23;;;;;;;11.77;7.07;;;16.20;99.90;;;;;;5018463;28;20579;-68
2022/04/26 09:29:50;;;;;;;13.47;9.00;;;16.10;99.90;;;;;;5021146;28;20501;-67
2022/04/26 09:32:17;;;;;;;14.20;8.87;;;16.10;99.90;;;;;;5021587;28;20512;-68
2022/04/26 09:34:43;;;;;;;11.20;8.77;;;15.90;99.90;;;;;;5016202;28;20505;-67
2022/04/26 09:37:12;;;;;;;14.07;7.83;;;15.70;99.90;;;;;;5022035;28;21000;-68
2022/04/26 09:39:41;;;;;;;14.37;8.50;;;16.00;99.90;;;;;;5015857;28;20571;-68
2022/04/26 09:42:09;;;;;;;9.90;7.47;;;15.80;99.90;;;;;;5018287;28;20526;-68
2022/04/26 09:44:38;;;;;;;10.40;7.13;;;15.60;99.90;;;;;;5012862;28;20465;-68
2022/04/26 09:47:05;;;;;;;23.73;8.43;;;15.60;99.90;;;;;;5022104;28;20484;-68
2022/04/26 09:49:37;;;;;;;16.63;9.33;;;15.90;99.90;;;;;;5028990;28;20518;-67
2022/04/26 09:52:06;;;;;;;11.90;7.00;;;16.00;99.90;;;;;;5028640;28;20464;-68
2022/04/26 09:54:35;;;;;;;16.43;8.63;;;16.10;99.90;;;;;;5017016;28;20472;-68
2022/04/26 09:57:06;;;;;;;19.60;8.50;;;16.30;99.90;;;;;;5019408;28;20602;-68
2022/04/26 09:59:38;;;;;;;16.67;8.00;;;16.50;99.90;;;;;;5021606;28;20520;-67
2022/04/26 10:02:08;;;;;;;15.97;8.30;;;16.80;99.90;;;;;;5011305;28;20474;-68
2022/04/26 10:04:38;;;;;;;12.03;7.80;;;16.50;99.90;;;;;;5015773;28;20563;-69
2022/04/26 10:07:07;;;;;;;13.03;8.07;;;16.90;99.90;;;;;;5018039;28;20493;-69
2022/04/26 10:09:34;;;;;;;12.53;9.40;;;17.10;99.90;;;;;;5021995;28;20503;-70
2022/04/26 10:12:04;;;;;;;12.10;8.43;;;17.50;99.90;;;;;;5013996;28;20476;-68
2022/04/26 10:14:32;;;;;;;10.40;8.30;;;17.70;99.90;;;;;;5017951;28;20461;-68
2022/04/26 10:17:00;;;;;;;12.30;8.47;;;18.40;99.90;;;;;;5025964;28;20460;-68
2022/04/26 10:19:38;;;;;;;14.07;7.87;;;19.20;99.90;;;;;;5018783;28;20455;-67
2022/04/26 10:22:05;;;;;;;11.60;7.67;;;20.30;99.90;;;;;;5015165;28;20463;-68
2022/04/26 10:24:32;;;;;;;12.73;8.37;;;20.30;99.90;;;;;;5022508;28;20462;-67
2022/04/26 10:27:23;;;;;;;14.80;10.07;;;19.50;99.90;;;;;;5019940;28;20497;-68
2022/04/26 10:29:50;;;;;;;13.17;8.60;;;19.40;99.90;;;;;;5016515;28;20464;-67
2022/04/26 10:32:30;;;;;;;12.07;8.30;;;20.10;99.90;;;;;;5023332;28;20441;-68
2022/04/26 10:34:57;;;;;;;18.23;10.47;;;20.20;99.90;;;;;;5020785;28;20521;-69
2022/04/26 10:37:32;;;;;;;12.73;8.77;;;20.30;99.90;;;;;;5021927;28;20476;-69
2022/04/26 10:40:04;;;;;;;14.00;8.80;;;20.60;99.90;;;;;;5012462;28;20462;-69
2022/04/26 10:42:35;;;;;;;12.37;8.10;;;20.00;99.90;;;;;;5015417;28;20451;-68
2022/04/26 10:45:08;;;;;;;14.87;9.97;;;19.60;99.90;;;;;;5017563;28;20958;-68
2022/04/26 10:47:36;;;;;;;14.10;8.80;;;18.90;99.90;;;;;;5019540;28;20481;-68
2022/04/26 10:50:06;;;;;;;9.33;8.43;;;18.60;99.90;;;;;;5022581;28;20454;-67
2022/04/26 10:52:50;;;;;;;9.70;7.80;;;19.10;99.90;;;;;;5015396;28;20709;-69
2022/04/26 10:55:20;;;;;;;10.80;8.07;;;19.70;99.90;;;;;;5012284;28;20460;-69
2022/04/26 10:57:50;;;;;;;21.00;10.10;;;20.40;99.90;;;;;;5016202;28;20805;-68
2022/04/26 11:00:20;;;;;;;11.63;9.40;;;20.80;99.90;;;;;;5013892;28;20464;-69
2022/04/26 11:02:48;;;;;;;16.27;9.13;;;20.80;99.90;;;;;;5023300;28;20464;-68
2022/04/26 11:05:16;;;;;;;10.87;7.40;;;21.30;99.90;;;;;;5014106;28;20457;-68
2022/04/26 11:07:44;;;;;;;11.80;9.47;;;22.50;99.90;;;;;;5017046;28;21055;-69
2022/04/26 11:10:13;;;;;;;12.23;8.90;;;22.60;99.90;;;;;;5016653;28;20536;-69
2022/04/26 11:12:40;;;;;;;12.87;10.07;;;22.30;99.90;;;;;;5016709;28;21046;-69
2022/04/26 11:15:10;;;;;;;10.77;9.27;;;21.20;99.90;;;;;;5018435;28;20460;-68
2022/04/26 11:17:38;;;;;;;11.77;8.40;;;20.40;99.90;;;;;;5017169;28;20850;-69
2022/04/26 11:20:07;;;;;;;12.27;8.57;;;21.20;99.90;;;;;;5016690;28;20474;-68
2022/04/26 11:22:42;;;;;;;14.07;10.20;;;22.80;99.90;;;;;;5014083;28;20556;-69
2022/04/26 11:28:02;;;;;;;10.10;7.93;;;22.30;99.90;;;;;;5023264;28;20500;-68
2022/04/26 11:30:32;;;;;;;14.13;9.20;;;22.50;99.90;;;;;;5019248;28;20469;-69
2022/04/26 11:33:01;;;;;;;13.50;10.00;;;22.90;99.90;;;;;;5018975;28;20532;-69
2022/04/26 11:35:28;;;;;;;14.30;10.60;;;23.60;99.90;;;;;;5014489;28;20534;-69
2022/04/26 11:37:57;;;;;;;13.57;12.27;;;23.50;99.90;;;;;;5017083;28;20474;-69
2022/04/26 11:40:26;;;;;;;11.93;9.77;;;23.30;99.90;;;;;;5013413;28;20463;-69
2022/04/26 11:42:53;;;;;;;13.90;10.90;;;22.40;99.90;;;;;;5016848;28;20520;-69
2022/04/26 11:45:20;;;;;;;9.93;8.93;;;21.20;99.80;;;;;;5022194;28;20519;-69
2022/04/26 11:47:50;;;;;;;10.43;8.63;;;20.30;99.90;;;;;;5012708;28;20495;-69
2022/04/26 11:50:19;;;;;;;10.33;8.77;;;19.70;99.90;;;;;;5016371;28;20461;-69
2022/04/26 11:52:47;;;;;;;10.10;8.73;;;19.70;99.90;;;;;;5018113;28;20462;-69
2022/04/26 11:55:22;;;;;;;12.83;9.60;;;20.70;99.90;;;;;;5007533;28;20564;-67
2022/04/26 11:57:49;;;;;;;10.00;7.17;;;20.80;99.90;;;;;;5017572;28;20536;-69
2022/04/26 12:00:17;;;;;;;12.40;10.70;;;20.30;99.90;;;;;;5013712;28;21909;-68
2022/04/26 12:02:45;;;;;;;14.57;11.13;;;19.50;99.90;;;;;;5017359;28;20526;-68
2022/04/26 12:05:14;;;;;;;16.50;11.23;;;19.20;99.90;;;;;;5013220;28;20515;-67
2022/04/26 12:07:41;;;;;;;13.87;9.97;;;19.40;99.90;;;;;;5026902;28;20552;-68
2022/04/26 12:10:29;;;;;;;10.87;7.57;;;20.30;99.90;;;;;;5017039;28;20481;-68
2022/04/26 12:13:00;;;;;;;11.80;8.60;;;21.90;99.90;;;;;;5018420;28;20805;-69
2022/04/26 12:15:28;;;;;;;8.03;7.23;;;22.40;99.90;;;;;;5012288;28;20465;-69
2022/04/26 12:18:10;;;;;;;9.37;7.37;;;23.40;99.90;;;;;;5008594;28;20483;-69
2022/04/26 12:20:55;;;;;;;12.67;9.70;;;23.00;99.80;;;;;;5013302;28;20454;-69
2022/04/26 12:23:23;;;;;;;11.50;9.37;;;21.30;99.90;;;;;;5014571;28;20465;-70
2022/04/26 12:25:54;;;;;;;15.50;9.83;;;20.00;99.90;;;;;;5017527;28;20469;-67
2022/04/26 12:28:21;;;;;;;11.40;7.57;;;19.00;99.90;;;;;;5014535;28;20502;-68
2022/04/26 12:30:48;;;;;;;13.70;10.43;;;18.60;99.90;;;;;;5013802;28;20488;-69
2022/04/26 12:33:25;;;;;;;8.20;6.73;;;18.40;99.90;;;;;;5017985;28;20537;-68
2022/04/26 12:36:04;;;;;;;12.77;9.80;;;18.10;99.90;;;;;;5018556;28;20466;-68
2022/04/26 12:38:44;;;;;;;12.53;8.13;;;17.70;99.90;;;;;;5018463;28;20472;-68
2022/04/26 12:41:11;;;;;;;12.53;8.10;;;17.60;99.90;;;;;;5022669;28;20537;-68
2022/04/26 12:43:38;;;;;;;10.20;6.90;;;17.40;99.90;;;;;;5013601;28;20469;-69
2022/04/26 12:46:06;;;;;;;10.57;8.10;;;17.40;99.90;;;;;;5019039;28;20946;-68
2022/04/26 12:51:25;;;;;;;11.70;9.20;;;17.10;99.90;;;;;;5024709;28;20558;-68
2022/04/26 12:53:52;;;;;;;11.43;8.87;;;16.90;99.90;;;;;;5025031;28;20860;-68
2022/04/26 12:56:20;;;;;;;16.43;9.63;;;16.90;99.90;;;;;;5020601;28;20525;-68
2022/04/26 12:58:48;;;;;;;10.43;8.13;;;16.90;99.90;;;;;;5022218;28;20546;-69
2022/04/26 13:01:16;;;;;;;13.33;9.10;;;16.90;99.90;;;;;;5016744;28;21093;-68
2022/04/26 13:03:45;;;;;;;10.17;7.47;;;16.60;99.90;;;;;;5015509;28;20468;-68
2022/04/26 13:06:14;;;;;;;14.77;9.27;;;16.40;99.90;;;;;;5016574;28;21027;-68
2022/04/26 13:08:43;;;;;;;10.27;7.93;;;16.50;99.90;;;;;;5023184;28;20492;-70
2022/04/26 13:11:10;;;;;;;11.60;8.63;;;16.60;99.90;;;;;;5027696;28;20465;-69
2022/04/26 13:13:40;;;;;;;13.60;9.43;;;16.80;99.90;;;;;;5023439;28;20526;-68
2022/04/26 13:16:07;;;;;;;15.10;8.90;;;16.70;99.90;;;;;;5022782;28;20488;-69
2022/04/26 13:18:34;;;;;;;11.87;7.70;;;16.60;99.90;;;;;;5018652;28;20889;-68
2022/04/26 13:21:02;;;;;;;9.30;6.73;;;16.30;99.90;;;;;;5025644;28;20473;-69
2022/04/26 13:23:30;;;;;;;18.17;9.47;;;15.90;99.90;;;;;;5018775;28;20460;-69
2022/04/26 13:25:58;;;;;;;13.67;8.30;;;15.50;99.90;;;;;;5021095;28;20465;-68
2022/04/26 13:28:25;;;;;;;11.60;6.50;;;15.30;99.90;;;;;;5019257;28;21017;-70
2022/04/26 13:30:53;;;;;;;18.07;8.90;;;15.30;99.90;;;;;;5023421;28;20555;-68
2022/04/26 13:33:19;;;;;;;11.40;6.70;;;15.20;99.90;;;;;;5023094;28;20464;-69
2022/04/26 13:35:46;;;;;;;13.10;8.17;;;15.40;99.90;;;;;;5019127;28;20469;-70
2022/04/26 13:38:15;;;;;;;10.17;8.10;;;15.30;99.90;;;;;;5021726;28;20527;-68
2022/04/26 13:40:42;;;;;;;14.70;8.67;;;15.60;99.90;;;;;;5017064;28;20523;-69
2022/04/26 13:43:11;;;;;;;10.80;9.20;;;15.60;99.90;;;;;;5019955;28;20460;-69
2022/04/26 13:45:39;;;;;;;12.67;9.73;;;15.50;99.90;;;;;;5016980;28;20525;-69
2022/04/26 13:48:11;;;;;;;12.37;9.30;;;15.50;99.90;;;;;;5020978;28;20476;-68
2022/04/26 13:50:38;;;;;;;16.73;10.17;;;15.70;99.90;;;;;;5016922;28;20446;-70
2022/04/26 13:53:04;;;;;;;13.07;9.47;;;15.90;99.90;;;;;;5029425;28;20462;-69
2022/04/26 13:55:31;;;;;;;12.73;10.03;;;16.00;99.90;;;;;;5023572;28;20817;-70
2022/04/26 13:57:58;;;;;;;15.13;10.40;;;15.90;99.90;;;;;;5015970;28;20489;-68
2022/04/26 14:00:26;;;;;;;10.53;8.53;;;15.90;99.90;;;;;;5013201;28;20456;-67
2022/04/26 14:02:53;;;;;;;14.67;8.73;;;15.90;99.90;;;;;;5016325;28;21312;-69
2022/04/26 14:05:23;;;;;;;12.07;8.83;;;15.80;99.90;;;;;;5025534;28;20881;-70
2022/04/26 14:07:50;;;;;;;15.33;11.30;;;15.70;99.90;;;;;;5028027;28;20480;-70
2022/04/26 14:10:17;;;;;;;16.70;12.03;;;16.00;99.90;;;;;;5019261;28;20484;-69
2022/04/26 14:12:43;;;;;;;16.20;11.53;;;16.00;99.90;;;;;;5030464;28;20956;-69
2022/04/26 14:23:28;;;;;;;10.50;8.87;;;15.90;99.90;;;;;;5020942;28;20446;-69
2022/04/26 14:25:55;;;;;;;15.57;10.30;;;16.10;99.90;;;;;;5023934;28;20508;-69
2022/04/26 14:28:22;;;;;;;13.90;9.97;;;16.30;99.90;;;;;;5049005;22;21255;-77
2022/04/26 14:30:49;;;;;;;21.30;9.03;;;16.40;99.90;;;;;;5058251;28;20463;-78
2022/04/26 14:33:19;;;;;;;10.30;7.90;;;16.30;99.90;;;;;;5052770;28;20560;-75
2022/04/26 14:35:49;;;;;;;14.40;8.20;;;16.40;99.90;;;;;;5049043;28;20502;-77
2022/04/26 14:38:18;;;;;;;10.47;8.10;;;16.50;99.90;;;;;;5047116;28;20571;-77
2022/04/26 14:40:45;;;;;;;13.23;9.10;;;16.60;99.90;;;;;;5038081;28;20504;-76
2022/04/26 14:43:14;;;;;;;17.23;8.90;;;16.60;99.90;;;;;;5051338;28;20459;-76
2022/04/26 14:45:59;;;;;;;14.70;9.20;;;16.40;99.90;;;;;;5045066;28;20472;-74
2022/04/26 14:48:30;;;;;;;12.30;7.93;;;16.50;99.90;;;;;;5047052;28;20562;-76
2022/04/26 14:50:57;;;;;;;11.43;7.50;;;16.60;99.90;;;;;;5046544;28;20463;-76
2022/04/26 14:53:24;;;;;;;12.00;9.00;;;16.70;99.90;;;;;;5042845;28;20825;-76
2022/04/26 14:55:51;;;;;;;12.77;9.30;;;16.70;99.90;;;;;;5045384;28;20980;-76
2022/04/26 14:58:18;;;;;;;15.73;9.50;;;16.70;99.90;;;;;;5037371;28;20535;-76
2022/04/26 15:00:44;;;;;;;10.33;8.10;;;16.90;99.90;;;;;;5036879;28;20467;-76
2022/04/26 15:03:11;;;;;;;10.33;8.00;;;17.00;99.90;;;;;;5044624;28;20508;-77
2022/04/26 15:05:43;;;;;;;11.57;7.70;;;17.00;99.90;;;;;;5044801;28;20460;-75
2022/04/26 15:10:57;;;;;;;6.07;5.30;;;15.70;99.90;;;;;;5043887;28;20462;-78
2022/04/26 15:18:53;;;;;;;5.17;4.67;;;14.60;99.90;;;;;;5036937;28;20471;-76
2022/04/26 15:21:21;;;;;;;8.53;5.23;;;14.60;99.90;;;;;;5034226;28;20461;-77
2022/04/26 15:23:47;;;;;;;8.10;5.17;;;14.60;99.90;;;;;;5042021;28;20466;-76
2022/04/26 15:26:14;;;;;;;9.07;5.77;;;14.60;99.90;;;;;;5046139;28;20495;-77
2022/04/26 15:28:41;;;;;;;6.40;4.63;;;14.50;99.90;;;;;;5037083;28;20603;-76
2022/04/26 15:31:10;;;;;;;6.43;5.20;;;14.50;99.90;;;;;;5035199;28;20502;-77
2022/04/26 15:33:38;;;;;;;7.67;5.50;;;14.50;99.90;;;;;;5045420;28;20461;-76
2022/04/26 15:36:06;;;;;;;7.10;5.87;;;14.90;99.90;;;;;;5039358;28;20511;-77
2022/04/26 15:38:35;;;;;;;9.10;6.30;;;14.60;99.90;;;;;;5030189;28;20601;-77
2022/04/26 15:41:05;;;;;;;7.67;5.87;;;14.60;99.90;;;;;;5047530;28;20458;-77
2022/04/26 15:43:38;;;;;;;13.07;6.70;;;14.50;99.90;;;;;;5038736;28;20453;-75
2022/04/26 15:46:06;;;;;;;6.50;5.60;;;14.20;99.90;;;;;;5038110;28;20462;-76
2022/04/26 15:48:38;;;;;;;7.87;5.57;;;14.20;99.90;;;;;;5042045;28;20535;-77
2022/04/26 15:51:06;;;;;;;6.00;5.10;;;14.20;99.90;;;;;;5037960;28;20464;-76
2022/04/26 15:53:34;;;;;;;8.40;4.67;;;14.30;99.90;;;;;;5042241;28;20460;-77
2022/04/26 15:56:03;;;;;;;5.97;5.07;;;14.20;99.90;;;;;;5042180;28;20456;-76
2022/04/26 15:58:30;;;;;;;5.87;4.57;;;14.20;99.90;;;;;;5042060;28;20494;-77
2022/04/26 16:00:57;;;;;;;13.87;5.87;;;14.30;99.90;;;;;;5034108;28;20495;-76
2022/04/26 16:03:24;;;;;;;9.53;5.60;;;14.40;99.90;;;;;;5032621;28;20458;-77
2022/04/26 16:05:50;;;;;;;7.13;4.63;;;14.50;99.90;;;;;;5038700;28;20922;-77
2022/04/26 16:08:17;;;;;;;4.37;3.90;;;14.60;99.90;;;;;;5036951;28;20485;-76
2022/04/26 16:21:43;;;;;;;7.60;4.53;;;14.50;99.90;;;;;;5046629;28;20466;-77
2022/04/26 16:24:13;;;;;;;6.90;5.73;;;14.50;99.90;;;;;;5045839;28;20558;-77
2022/04/26 16:26:42;;;;;;;7.70;5.00;;;14.50;99.90;;;;;;5046937;28;20451;-76
2022/04/26 16:29:10;;;;;;;10.80;5.93;;;14.60;99.90;;;;;;5046027;28;20481;-77
2022/04/26 16:31:39;;;;;;;8.53;5.40;;;14.50;99.90;;;;;;5042605;28;20502;-77
2022/04/26 16:34:08;;;;;;;7.00;5.80;;;14.60;99.90;;;;;;5035794;28;20463;-77
2022/04/26 16:36:36;;;;;;;11.07;6.13;;;14.80;99.90;;;;;;5045691;28;20849;-77
2022/04/26 16:39:05;;;;;;;11.03;6.87;;;14.90;99.90;;;;;;5038425;28;20468;-77
2022/04/26 16:41:32;;;;;;;10.93;7.07;;;14.90;99.90;;;;;;5046948;28;20454;-77
2022/04/26 16:44:00;;;;;;;3.23;2.87;;;15.00;99.90;;;;;;5045696;28;20509;-76
2022/04/26 16:46:30;;;;;;;3.97;3.10;;;14.60;99.90;;;;;;5048972;28;20546;-76
2022/04/26 16:49:01;;;;;;;9.00;5.33;;;14.10;99.90;;;;;;5039269;28;20467;-76
2022/04/26 16:51:30;;;;;;;10.20;6.00;;;13.80;99.90;;;;;;5040904;28;20892;-76
2022/04/26 16:53:58;;;;;;;9.60;7.53;;;13.80;99.90;;;;;;5037892;28;20456;-76
2022/04/26 16:56:25;;;;;;;7.40;6.33;;;14.00;99.90;;;;;;5047482;28;20483;-76
2022/04/26 16:58:52;;;;;;;10.67;7.03;;;14.00;99.90;;;;;;5044283;28;20472;-77
2022/04/26 17:01:20;;;;;;;11.83;8.37;;;14.20;99.90;;;;;;5039102;28;20451;-76
2022/04/26 17:03:50;;;;;;;17.27;8.17;;;14.10;99.90;;;;;;5043566;28;20463;-76
2022/04/26 17:06:24;;;;;;;10.03;7.13;;;14.30;99.90;;;;;;5041735;28;20463;-76
2022/04/26 17:08:53;;;;;;;9.30;7.30;;;14.50;99.90;;;;;;5041455;28;20474;-76
2022/04/26 17:14:04;;;;;;;10.90;7.53;;;14.80;99.90;;;;;;5044968;28;20918;-76